U24306 / OE-IJJ 7700 Squawk Report (25th of March, 2019)

Aircraft A320 Reg No. OE-IJJ Age 4 years old
Model A320 Jet engines 2 First flight 25-03-15
Registered 21-12-17 Rollout 03-15 Delivered 02-04-15
Construction No. 6546 Line No. N/A Series 214(SL)
ADSHEX 4401C3 Airline name easyJet Europe Owner N/A
Airfield based Vienna-Schwechat~Vienna~OE First tracked 2018-01-10 10:37:00

Flight history for OE-IJJ

Route Flight No Date Playback
Son Sant Joan (PMI) - Belfast International (BFS) U26712 2019-04-22 16:24:00
Gatwick (LGW) - Son Sant Joan (PMI) U28619 2019-04-22 15:24:00
Son Sant Joan (PMI) - Gatwick (LGW) U28620 2019-04-22 13:19:00
Blagnac (TLS) - Son Sant Joan (PMI) U21727 2019-04-21 20:50:00
Son Sant Joan (PMI) - Blagnac (TLS) U21728 2019-04-21 19:00:00
Geneve Cointrin (GVA) - Son Sant Joan (PMI) U21515 2019-04-21 18:09:00
Son Sant Joan (PMI) - Geneve Cointrin (GVA) U21516 2019-04-21 14:46:00
Tegel (TXL) - Son Sant Joan (PMI) U25805 2019-04-21 12:14:00
Son Sant Joan (PMI) - Tegel (TXL) U25800 2019-04-21 09:34:00
Gatwick (LGW) - Son Sant Joan (PMI) U28635 2019-04-21 05:30:00
Son Sant Joan (PMI) - Gatwick (LGW) U28636 2019-04-20 20:59:00
Schiphol (AMS) - Son Sant Joan (PMI) U27953 2019-04-20 18:58:00
Václav Havel Airport Prague (PRG) - Schiphol (AMS) U27906 2019-04-20 14:55:00
Malpensa (MXP) - Václav Havel Airport Prague (PRG) U22581 2019-04-20 12:26:00
Gatwick (LGW) - Malpensa (MXP) U28191 2019-04-20 09:57:00
Malpensa (MXP) - Gatwick (LGW) U28190 2019-04-20 08:09:00
Schiphol (AMS) - Malpensa (MXP) U22728 2019-04-19 19:13:00
Schwechat (VIE) - Schiphol (AMS) U27948 2019-04-19 17:41:00
Schiphol (AMS) - Schwechat (VIE) U27947 2019-04-19 13:13:00
Fiumicino (FCO) - Schiphol (AMS) U27976 2019-04-19 11:34:00
Time Lat Lon Altitude Heading Speed Vertical Rate
2019-03-25 20:22:44 GMT 44.776966 -0.789207 1,100 45 120 -576
2019-03-25 20:22:32 GMT 44.772312 -0.795638 1,250 45 120 -384
2019-03-25 20:22:22 GMT 44.768463 -0.801086 1,350 44 120 -704
2019-03-25 20:22:19 GMT 44.767052 -0.803074 1,400 44 120 -704
2019-03-25 20:22:10 GMT 44.763885 -0.807430 1,475 45 124 -832
2019-03-25 20:22:05 GMT 44.761047 -0.811381 1,550 45 124 -576
2019-03-25 20:22:02 GMT 44.760498 -0.812204 1,575 45 123 -384
2019-03-25 20:21:52 GMT 44.756020 -0.818481 1,600 45 121 -64
2019-03-25 20:21:46 GMT 44.753952 -0.821424 1,625 45 120 -128
2019-03-25 20:21:41 GMT 44.751984 -0.824171 1,625 45 120 -256
2019-03-25 20:21:37 GMT 44.750385 -0.826386 1,650 45 121 -512
2019-03-25 20:21:31 GMT 44.748104 -0.829669 1,700 45 121 -512
2019-03-25 20:21:27 GMT 44.746338 -0.832281 1,750 46 123 -576
2019-03-25 20:21:22 GMT 44.744522 -0.834961 1,800 46 124 -640
2019-03-25 20:21:16 GMT 44.741730 -0.839047 1,850 46 126 -640
2019-03-25 20:21:08 GMT 44.738701 -0.843469 1,925 46 128 -576
2019-03-25 20:21:05 GMT 44.737839 -0.844836 1,950 46 128 -640
2019-03-25 20:20:58 GMT 44.735023 -0.848962 2,025 46 130 -512
2019-03-25 20:20:54 GMT 44.733440 -0.851306 2,075 46 131 -512
2019-03-25 20:20:50 GMT 44.731487 -0.854120 2,100 45 133 -448
2019-03-25 20:20:45 GMT 44.728775 -0.857718 2,150 37 137 -512
2019-03-25 20:20:40 GMT 44.726830 -0.859747 2,200 26 139 -576
2019-03-25 20:20:34 GMT 44.723061 -0.861891 2,250 10 146 -512
2019-03-25 20:20:30 GMT 44.720268 -0.862427 2,275 359 151 -576
2019-03-25 20:20:24 GMT 44.715317 -0.861250 2,350 340 160 -768
2019-03-25 20:20:19 GMT 44.712772 -0.859412 2,400 324 168 -896
2019-03-25 20:20:13 GMT 44.709137 -0.855233 2,500 316 173 -704
2019-03-25 20:20:09 GMT 44.706940 -0.852160 2,550 315 176 -640
2019-03-25 20:20:03 GMT 44.702763 -0.846215 2,600 315 182 0
2019-03-25 20:19:58 GMT 44.700119 -0.842547 2,575 316 187 128
2019-03-25 20:19:51 GMT 44.696548 -0.837642 2,575 316 193 -320
2019-03-25 20:19:48 GMT 44.694351 -0.834699 2,600 316 195 -128
2019-03-25 20:19:40 GMT 44.688984 -0.827458 2,625 317 198 -64
2019-03-25 20:19:37 GMT 44.685516 -0.822863 2,625 317 198 -64
2019-03-25 20:19:31 GMT 44.682129 -0.818481 2,625 318 201 -64
2019-03-25 20:19:28 GMT 44.680790 -0.816673 2,625 318 204 -64
2019-03-25 20:19:21 GMT 44.675583 -0.809849 2,625 316 211 -64
2019-03-25 20:19:17 GMT 44.672882 -0.805860 2,625 309 220 -192
2019-03-25 20:19:11 GMT 44.668827 -0.797380 2,650 297 231 -384
2019-03-25 20:19:08 GMT 44.667526 -0.793239 2,675 286 239 -640
2019-03-25 20:18:58 GMT 44.665695 -0.779375 2,750 275 245 -832
2019-03-25 20:18:49 GMT 44.667244 -0.765559 2,925 268 249 -960
2019-03-25 20:18:46 GMT 44.668488 -0.760476 2,975 249 257 -896
2019-03-25 20:18:39 GMT 44.671555 -0.749948 3,125 248 260 -896
2019-03-25 20:18:36 GMT 44.673016 -0.744927 3,125 248 261 -896
2019-03-25 20:18:29 GMT 44.676697 -0.732333 3,300 248 264 -832
2019-03-25 20:18:22 GMT 44.679581 -0.722485 3,325 248 266 -832
2019-03-25 20:18:18 GMT 44.681625 -0.715419 3,400 248 268 -896
2019-03-25 20:18:14 GMT 44.682861 -0.711169 3,450 248 270 -896
2019-03-25 20:18:05 GMT 44.687393 -0.695539 3,575 248 276 -960
2019-03-25 20:17:55 GMT 44.692749 -0.677163 3,750 248 280 -896
2019-03-25 20:17:44 GMT 44.697601 -0.660618 3,900 248 282 -896
2019-03-25 20:17:36 GMT 44.702408 -0.644400 4,050 248 281 -832
2019-03-25 20:17:25 GMT 44.707123 -0.628575 4,175 248 280 -832
2019-03-25 20:17:15 GMT 44.712479 -0.610395 4,325 248 281 -896
2019-03-25 20:17:09 GMT 44.715427 -0.600162 4,425 249 283 -832
2019-03-25 20:17:03 GMT 44.717987 -0.591252 4,500 249 283 -768
2019-03-25 20:16:54 GMT 44.722687 -0.574907 4,600 249 281 0
2019-03-25 20:16:47 GMT 44.726181 -0.562714 4,600 249 281 0
2019-03-25 20:16:44 GMT 44.727859 -0.556902 4,600 248 282 0
2019-03-25 20:16:33 GMT 44.732838 -0.539536 4,600 248 283 0
2019-03-25 20:16:23 GMT 44.738003 -0.521784 4,600 248 285 0
2019-03-25 20:16:13 GMT 44.742939 -0.504902 4,600 248 287 -64
2019-03-25 20:16:02 GMT 44.748432 -0.486078 4,600 248 291 -64
2019-03-25 20:15:51 GMT 44.753586 -0.468423 4,600 248 296 -128
2019-03-25 20:15:41 GMT 44.759090 -0.449435 4,625 248 302 -64
2019-03-25 20:15:31 GMT 44.764755 -0.429840 4,600 248 311 0
2019-03-25 20:15:21 GMT 44.770294 -0.410679 4,600 248 325 64
2019-03-25 20:15:11 GMT 44.776688 -0.388675 4,575 248 340 64
2019-03-25 20:15:00 GMT 44.782471 -0.368696 4,600 249 352 0
2019-03-25 20:14:49 GMT 44.789211 -0.345332 4,600 248 352 0
2019-03-25 20:14:37 GMT 44.796432 -0.320304 4,600 249 352 0
2019-03-25 20:14:29 GMT 44.801697 -0.301993 4,600 249 352 -64
2019-03-25 20:14:19 GMT 44.808250 -0.279080 4,600 249 351 0
2019-03-25 20:14:08 GMT 44.814377 -0.257917 4,600 248 351 0
2019-03-25 20:13:58 GMT 44.821243 -0.234113 4,600 248 353 0
2019-03-25 20:13:46 GMT 44.827618 -0.212023 4,600 248 353 0
2019-03-25 20:13:36 GMT 44.834106 -0.189514 4,600 249 352 0
2019-03-25 20:13:25 GMT 44.840324 -0.167809 4,600 249 353 0
2019-03-25 20:13:15 GMT 44.846832 -0.145176 4,600 248 353 0
2019-03-25 20:13:04 GMT 44.852989 -0.123797 4,600 248 354 64
2019-03-25 20:12:55 GMT 44.859558 -0.101100 4,600 248 354 -64
2019-03-25 20:12:44 GMT 44.866425 -0.077035 4,600 249 355 0
2019-03-25 20:12:34 GMT 44.872604 -0.055586 4,600 249 354 64
2019-03-25 20:12:23 GMT 44.879105 -0.032892 4,600 249 356 -64
2019-03-25 20:12:13 GMT 44.885193 -0.011379 4,600 249 355 0
2019-03-25 20:12:02 GMT 44.891785 0.011836 4,600 249 354 0
2019-03-25 20:11:52 GMT 44.897736 0.032763 4,600 249 354 0
2019-03-25 20:11:41 GMT 44.904427 0.056338 4,600 249 355 0
2019-03-25 20:11:31 GMT 44.911285 0.080436 4,600 249 355 0
2019-03-25 20:11:20 GMT 44.917370 0.101891 4,600 249 355 64
2019-03-25 20:11:10 GMT 44.923981 0.125137 4,600 249 356 -64
2019-03-25 20:10:59 GMT 44.930031 0.146239 4,600 249 356 0
2019-03-25 20:10:49 GMT 44.936737 0.170027 4,600 249 356 0
2019-03-25 20:10:37 GMT 44.943054 0.192392 4,600 249 355 0
2019-03-25 20:10:28 GMT 44.949772 0.216109 4,600 249 356 0
2019-03-25 20:10:17 GMT 44.955448 0.236407 4,600 249 356 64
2019-03-25 20:10:07 GMT 44.962246 0.260657 4,600 249 355 0
2019-03-25 20:09:56 GMT 44.968761 0.283903 4,600 249 355 0
2019-03-25 20:09:45 GMT 44.974960 0.305917 4,600 249 355 0
2019-03-25 20:09:35 GMT 44.981380 0.328786 4,600 249 355 0
2019-03-25 20:08:42 GMT 45.013367 0.442723 4,625 249 358 -128
2019-03-25 20:08:13 GMT 45.031376 0.506577 4,950 249 380 -1920
2019-03-25 20:08:10 GMT 45.032913 0.512137 5,050 249 381 -2048
2019-03-25 20:08:00 GMT 45.039661 0.536320 5,475 249 380 -3392
2019-03-25 20:07:49 GMT 45.046326 0.560695 6,150 249 372 -4224
2019-03-25 20:07:39 GMT 45.053162 0.585424 6,875 249 367 -3328
2019-03-25 20:07:27 GMT 45.059921 0.609545 7,425 249 369 -2368
2019-03-25 20:07:17 GMT 45.066849 0.634326 7,850 249 372 -2496
2019-03-25 20:07:07 GMT 45.073700 0.658918 8,225 249 378 -1920
2019-03-25 20:06:55 GMT 45.080627 0.683899 8,675 249 381 -2624
2019-03-25 20:06:49 GMT 45.085281 0.700575 8,950 249 383 -2176
2019-03-25 20:06:45 GMT 45.087479 0.708553 9,075 249 385 -2112
2019-03-25 20:06:38 GMT 45.092056 0.724967 9,350 249 387 -2368
2019-03-25 20:06:34 GMT 45.094162 0.732553 9,475 249 388 -2816
2019-03-25 20:06:28 GMT 45.099106 0.750536 9,850 249 388 -3264
2019-03-25 20:06:24 GMT 45.101212 0.758057 10,025 249 387 -2816
2019-03-25 20:06:17 GMT 45.105515 0.773686 10,350 249 389 -2432
2019-03-25 20:06:13 GMT 45.107861 0.782173 10,500 249 390 -2496
2019-03-25 20:06:07 GMT 45.112469 0.798853 10,775 249 392 -2560
2019-03-25 20:06:01 GMT 45.116055 0.811782 11,100 249 399 -3072
2019-03-25 20:05:55 GMT 45.120300 0.827179 11,250 249 396 -2368
2019-03-25 20:05:51 GMT 45.122524 0.835430 11,400 249 397 -2368
2019-03-25 20:05:44 GMT 45.128159 0.855728 11,750 249 398 -2816
2019-03-25 20:05:41 GMT 45.129364 0.860138 11,825 249 398 -2944
2019-03-25 20:05:35 GMT 45.133743 0.876160 12,150 249 399 -3136
2019-03-25 20:05:30 GMT 45.137238 0.888781 12,400 249 397 -3200
2019-03-25 20:05:22 GMT 45.141891 0.905769 12,800 249 397 -2688
2019-03-25 20:05:19 GMT 45.143894 0.913071 12,925 249 400 -2048
2019-03-25 20:05:14 GMT 45.147675 0.926775 13,100 249 402 -2112
2019-03-25 20:05:08 GMT 45.151566 0.941031 13,300 249 404 -2304
2019-03-25 20:04:58 GMT 45.157928 0.964246 13,725 249 406 -2944
2019-03-25 20:04:47 GMT 45.165939 0.993543 14,225 249 406 -3200
2019-03-25 20:04:37 GMT 45.172028 1.015843 14,825 249 406 -3200
2019-03-25 20:04:32 GMT 45.175964 1.030230 15,100 249 406 -3008
2019-03-25 20:04:27 GMT 45.180298 1.046046 15,425 249 406 -3008
2019-03-25 20:04:23 GMT 45.181915 1.052006 15,525 249 406 -3008
2019-03-25 20:04:14 GMT 45.187466 1.072306 15,975 249 406 -2624
2019-03-25 20:04:05 GMT 45.194962 1.099705 16,425 249 412 -1728
2019-03-25 20:03:53 GMT 45.202736 1.128108 16,675 249 420 -1920
2019-03-25 20:03:42 GMT 45.209858 1.154368 17,125 250 421 -3328
2019-03-25 20:03:31 GMT 45.217850 1.183777 17,700 249 423 -2560
2019-03-25 20:03:20 GMT 45.225872 1.213386 18,200 250 427 -2688
2019-03-25 20:03:10 GMT 45.232994 1.239579 18,625 249 431 -2496
2019-03-25 20:03:00 GMT 45.240303 1.266442 19,100 249 434 -2368
2019-03-25 20:02:49 GMT 45.248245 1.295798 19,475 250 442 -2368
2019-03-25 20:02:37 GMT 45.256550 1.326666 19,975 250 444 -3008
2019-03-25 20:02:26 GMT 45.272331 1.385014 21,000 250 447 -3008
2019-03-25 20:02:15 GMT 45.272331 1.385014 21,100 250 448 -2816
2019-03-25 20:02:03 GMT 45.281525 1.419198 21,625 250 453 -2816
2019-03-25 20:01:53 GMT 45.288952 1.447047 22,150 250 456 -2944
2019-03-25 20:01:41 GMT 45.298370 1.482370 22,800 250 458 -3456
2019-03-25 20:01:32 GMT 45.305428 1.508811 23,350 250 460 -3328
2019-03-25 20:01:24 GMT 45.311829 1.532462 23,850 250 461 -3008
2019-03-25 20:01:21 GMT 45.312744 1.535863 23,900 250 463 -2816
2019-03-25 20:01:11 GMT 45.321213 1.567252 24,350 250 469 -1984
2019-03-25 20:01:00 GMT 45.329132 1.596810 24,750 250 476 -2880
2019-03-25 20:00:51 GMT 45.336914 1.626107 25,300 250 477 -4480
2019-03-25 20:00:47 GMT 45.339523 1.636113 25,525 250 476 -5056
2019-03-25 20:00:41 GMT 45.344627 1.655318 26,150 250 473 -4864
2019-03-25 20:00:28 GMT 45.354031 1.690622 27,025 250 471 -3264
2019-03-25 20:00:18 GMT 45.362549 1.722434 27,600 250 471 -2112
2019-03-25 20:00:07 GMT 45.370789 1.753169 27,925 250 475 -384
2019-03-25 19:59:58 GMT 45.382847 1.798073 28,000 250 476 0
2019-03-25 19:59:47 GMT 45.385666 1.808624 28,000 250 476 64
2019-03-25 19:59:37 GMT 45.394089 1.840145 28,000 250 476 0
2019-03-25 19:59:31 GMT 45.398849 1.858324 28,000 251 475 64
2019-03-25 19:59:26 GMT 45.402210 1.872499 28,000 253 474 64
2019-03-25 19:59:23 GMT 45.403515 1.878394 28,000 254 471 0
2019-03-25 19:59:19 GMT 45.406216 1.892127 28,000 257 468 0
2019-03-25 19:59:15 GMT 45.408508 1.905212 28,000 258 467 0
2019-03-25 19:59:10 GMT 45.410870 1.920799 28,000 259 464 0
2019-03-25 19:59:06 GMT 45.412628 1.933986 28,000 260 463 0
2019-03-25 19:59:03 GMT 45.413452 1.940526 28,000 260 463 0
2019-03-25 19:59:00 GMT 45.414459 1.948308 28,000 260 463 0
2019-03-25 19:58:54 GMT 45.417023 1.968057 28,000 260 462 0
2019-03-25 19:58:49 GMT 45.418900 1.982967 28,000 260 462 0
2019-03-25 19:58:41 GMT 45.421875 2.006247 28,000 260 461 0
2019-03-25 19:58:38 GMT 45.422741 2.012843 28,000 260 461 0
2019-03-25 19:58:33 GMT 45.425022 2.030729 28,000 260 461 0
2019-03-25 19:58:27 GMT 45.427395 2.049218 28,000 260 461 0
2019-03-25 19:58:22 GMT 45.429337 2.064710 28,000 260 461 0
2019-03-25 19:58:11 GMT 45.433090 2.093942 28,000 260 460 0
2019-03-25 19:58:04 GMT 45.437218 2.126658 28,000 260 460 64
2019-03-25 19:57:57 GMT 45.438721 2.138541 28,000 260 460 0
2019-03-25 19:57:51 GMT 45.440617 2.153387 28,000 260 460 0
2019-03-25 19:57:43 GMT 45.444031 2.180132 28,000 260 460 0
2019-03-25 19:57:40 GMT 45.445129 2.189026 28,000 260 460 0
2019-03-25 19:57:29 GMT 45.448975 2.219304 28,000 260 459 64
2019-03-25 19:57:20 GMT 45.453049 2.251413 28,000 260 460 64
2019-03-25 19:57:14 GMT 45.454926 2.266257 27,975 260 459 64
2019-03-25 19:57:09 GMT 45.456940 2.282279 28,000 260 459 64
2019-03-25 19:57:02 GMT 45.458958 2.298353 27,975 260 458 64
2019-03-25 19:56:57 GMT 45.461105 2.315499 27,975 260 457 0
2019-03-25 19:56:47 GMT 45.465012 2.346787 28,000 260 453 -64
2019-03-25 19:56:37 GMT 45.468781 2.376530 28,025 260 447 64
2019-03-25 19:56:25 GMT 45.472870 2.409472 28,025 260 445 0
2019-03-25 19:56:15 GMT 45.476463 2.438295 28,000 260 445 0
2019-03-25 19:56:06 GMT 45.479488 2.462478 28,000 260 445 0
2019-03-25 19:56:01 GMT 45.481522 2.478594 28,000 261 444 0
2019-03-25 19:55:54 GMT 45.484283 2.501064 28,000 261 444 0
2019-03-25 19:55:45 GMT 45.487217 2.524712 28,000 261 444 0
2019-03-25 19:55:37 GMT 45.491360 2.558073 28,000 261 443 64
2019-03-25 19:55:34 GMT 45.491360 2.558073 28,000 261 443 64
2019-03-25 19:55:26 GMT 45.494934 2.586823 28,000 261 443 64
2019-03-25 19:55:23 GMT 45.494934 2.586823 27,975 261 442 0
2019-03-25 19:55:11 GMT 45.499554 2.624594 28,000 261 441 -64
2019-03-25 19:55:01 GMT 45.502762 2.650779 28,000 261 436 0
2019-03-25 19:54:52 GMT 45.505920 2.676610 28,000 261 431 64
2019-03-25 19:54:41 GMT 45.509399 2.705122 28,000 261 430 64
2019-03-25 19:54:31 GMT 45.513004 2.734658 28,000 261 429 64
2019-03-25 19:54:23 GMT 45.515800 2.757970 27,975 261 427 64
2019-03-25 19:54:19 GMT 45.516907 2.767378 27,975 261 425 64
2019-03-25 19:54:12 GMT 45.519196 2.786669 27,975 261 425 -64
2019-03-25 19:54:09 GMT 45.521805 2.809151 28,000 261 418 64
2019-03-25 19:54:04 GMT 45.523590 2.824336 28,000 261 415 64
2019-03-25 19:53:59 GMT 45.523590 2.824336 28,000 261 415 64
2019-03-25 19:53:54 GMT 45.525204 2.838291 27,975 261 411 64
2019-03-25 19:53:51 GMT 45.525620 2.842043 27,975 261 410 0
2019-03-25 19:53:48 GMT 45.526691 2.851086 27,975 261 408 0
2019-03-25 19:53:40 GMT 45.529346 2.874198 28,000 261 401 -128
2019-03-25 19:53:37 GMT 45.530136 2.880968 28,000 261 398 -192
2019-03-25 19:53:33 GMT 45.531509 2.892805 28,000 261 394 -128
2019-03-25 19:53:30 GMT 45.532288 2.899475 28,025 261 392 -128
2019-03-25 19:53:26 GMT 45.533443 2.909166 28,025 261 388 0
2019-03-25 19:53:23 GMT 45.534210 2.915693 28,025 261 388 64
2019-03-25 19:53:16 GMT 45.536423 2.934354 28,000 261 390 -64
2019-03-25 19:53:08 GMT 45.538841 2.954116 28,000 261 392 -64
2019-03-25 19:53:05 GMT 45.541718 2.977687 28,000 261 394 -128
2019-03-25 19:52:59 GMT 45.541718 2.977687 28,025 261 397 -128
2019-03-25 19:52:55 GMT 45.543045 2.988543 28,025 261 400 -128
2019-03-25 19:52:47 GMT 45.545746 3.010515 28,025 261 406 -64
2019-03-25 19:52:44 GMT 45.546570 3.017395 28,025 261 410 64
2019-03-25 19:52:37 GMT 45.548676 3.034437 28,025 261 415 128
2019-03-25 19:52:33 GMT 45.550156 3.046371 28,000 261 422 192
2019-03-25 19:52:27 GMT 45.552250 3.063538 27,975 261 431 128
2019-03-25 19:52:22 GMT 45.553848 3.076976 27,975 261 436 64
2019-03-25 19:52:12 GMT 45.557137 3.104324 28,000 261 441 64
2019-03-25 19:52:05 GMT 45.559570 3.125007 28,000 261 442 64
2019-03-25 19:52:01 GMT 45.560989 3.136999 28,000 261 441 0
2019-03-25 19:51:57 GMT 45.562546 3.150196 28,000 261 441 0
2019-03-25 19:51:54 GMT 45.563515 3.158226 28,000 261 441 64
2019-03-25 19:51:49 GMT 45.564926 3.170226 28,000 261 441 64
2019-03-25 19:51:44 GMT 45.566772 3.186241 28,000 261 439 0
2019-03-25 19:51:40 GMT 45.568497 3.200523 28,000 261 440 0
2019-03-25 19:51:34 GMT 45.570236 3.215377 28,000 261 439 0
2019-03-25 19:51:30 GMT 45.573009 3.239319 28,000 261 438 0
2019-03-25 19:51:25 GMT 45.573009 3.239319 28,000 261 438 64
2019-03-25 19:51:21 GMT 45.574127 3.249006 28,000 261 438 0
2019-03-25 19:51:18 GMT 45.575199 3.258133 28,000 261 438 0
2019-03-25 19:51:15 GMT 45.576553 3.269504 28,000 261 437 0
2019-03-25 19:51:12 GMT 45.577576 3.278595 28,000 261 437 0
2019-03-25 19:51:07 GMT 45.578979 3.290539 28,000 261 437 0
2019-03-25 19:51:02 GMT 45.580399 3.303066 28,000 261 436 -64
2019-03-25 19:50:58 GMT 45.581818 3.314991 28,000 261 436 -64
2019-03-25 19:50:52 GMT 45.584015 3.334217 28,000 261 435 0
2019-03-25 19:50:41 GMT 45.587448 3.364228 28,000 261 435 0
2019-03-25 19:50:37 GMT 45.590748 3.393127 28,000 261 435 0
2019-03-25 19:50:31 GMT 45.590748 3.393127 28,000 261 437 0
2019-03-25 19:50:27 GMT 45.592163 3.405628 28,000 261 439 128
2019-03-25 19:50:23 GMT 45.593536 3.417619 28,000 261 438 0
2019-03-25 19:50:20 GMT 45.594379 3.425056 28,000 261 442 512
2019-03-25 19:50:16 GMT 45.595734 3.437046 28,000 261 439 192
2019-03-25 19:50:12 GMT 45.596832 3.446759 27,975 261 440 256
2019-03-25 19:50:09 GMT 45.597794 3.455334 27,950 261 442 512
2019-03-25 19:50:05 GMT 45.599121 3.466789 27,950 261 441 448
2019-03-25 19:50:02 GMT 45.600292 3.477104 27,925 261 442 640
2019-03-25 19:49:59 GMT 45.602665 3.497910 27,850 261 447 2368
2019-03-25 19:49:55 GMT 45.602665 3.497910 27,850 261 444 1088
2019-03-25 19:49:51 GMT 45.603642 3.506561 27,775 261 445 1344
2019-03-25 19:49:48 GMT 45.604668 3.515282 27,725 261 445 1536
2019-03-25 19:49:45 GMT 45.605850 3.525673 27,625 261 445 1920
2019-03-25 19:49:38 GMT 45.608139 3.546038 27,400 261 447 2368
2019-03-25 19:49:30 GMT 45.610886 3.569954 27,075 261 450 1984
2019-03-25 19:49:26 GMT 45.611744 3.577560 26,975 261 450 1984
2019-03-25 19:49:23 GMT 45.612808 3.586969 26,875 261 451 2176
2019-03-25 19:49:18 GMT 45.616013 3.615239 26,600 261 456 2368
2019-03-25 19:49:08 GMT 45.618073 3.633594 26,100 261 457 2368
2019-03-25 19:49:04 GMT 45.619099 3.642517 26,150 261 458 2240
2019-03-25 19:48:58 GMT 45.621471 3.663460 25,900 261 460 1856
2019-03-25 19:48:55 GMT 45.622559 3.673051 25,825 261 460 1664
2019-03-25 19:48:48 GMT 45.625103 3.695251 25,625 261 460 1280
2019-03-25 19:48:43 GMT 45.627197 3.713860 25,500 261 459 1024
2019-03-25 19:48:37 GMT 45.630386 3.742519 25,375 261 457 704
2019-03-25 19:48:31 GMT 45.630386 3.742519 25,350 261 457 768
2019-03-25 19:48:27 GMT 45.631897 3.756252 24,750 261 453 1152
2019-03-25 19:48:22 GMT 45.633957 3.774675 25,200 262 455 896
2019-03-25 19:48:17 GMT 45.635204 3.785889 25,150 262 454 1152
2019-03-25 19:48:11 GMT 45.637115 3.803055 25,025 261 454 1280
2019-03-25 19:48:06 GMT 45.638649 3.816650 24,925 261 453 1280
2019-03-25 19:48:01 GMT 45.640732 3.835568 24,800 261 453 1152
2019-03-25 19:47:55 GMT 45.642654 3.852699 24,700 261 452 1024
2019-03-25 19:47:50 GMT 45.644073 3.865044 24,625 261 451 1024
2019-03-25 19:47:46 GMT 45.645493 3.877973 24,550 261 450 1024
2019-03-25 19:47:40 GMT 45.647820 3.898430 24,425 261 448 1280
2019-03-25 19:47:33 GMT 45.649796 3.915889 24,300 261 446 1600
2019-03-25 19:47:29 GMT 45.651127 3.927544 24,125 261 446 1600
2019-03-25 19:47:25 GMT 45.652496 3.939737 24,050 261 446 1600
2019-03-25 19:47:18 GMT 45.654713 3.959541 23,900 261 446 1472
2019-03-25 19:47:13 GMT 45.656200 3.972862 23,800 262 445 1280
2019-03-25 19:47:08 GMT 45.657990 3.989109 23,675 262 444 1088
2019-03-25 19:47:02 GMT 45.659458 4.002388 23,575 262 443 960
2019-03-25 19:46:57 GMT 45.661228 4.018524 23,525 262 440 640
2019-03-25 19:46:52 GMT 45.662933 4.034528 23,475 262 438 448
2019-03-25 19:46:47 GMT 45.664627 4.049869 23,425 262 434 384
2019-03-25 19:46:42 GMT 45.666000 4.062865 23,400 262 430 384
2019-03-25 19:46:36 GMT 45.667465 4.076330 23,375 262 428 384
2019-03-25 19:46:31 GMT 45.669235 4.093025 23,325 262 424 384
2019-03-25 19:46:27 GMT 45.670670 4.106274 23,300 262 421 384
2019-03-25 19:46:20 GMT 45.672501 4.123223 23,275 262 417 384
2019-03-25 19:46:16 GMT 45.673553 4.133003 23,250 262 414 384
2019-03-25 19:46:09 GMT 45.675568 4.151871 23,200 262 411 448
2019-03-25 19:46:06 GMT 45.676758 4.163081 23,150 262 407 768
2019-03-25 19:46:00 GMT 45.678452 4.178375 23,075 262 403 1344
2019-03-25 19:45:52 GMT 45.680363 4.196297 22,775 262 402 1920
2019-03-25 19:45:49 GMT 45.681339 4.205223 22,775 262 402 1920
2019-03-25 19:45:44 GMT 45.682735 4.218338 22,625 262 401 1920
2019-03-25 19:45:38 GMT 45.684402 4.234024 22,450 262 400 1472
2019-03-25 19:45:34 GMT 45.685684 4.246015 22,075 262 397 1216
2019-03-25 19:45:27 GMT 45.687332 4.261556 22,200 262 396 1216
2019-03-25 19:45:22 GMT 45.688881 4.276016 22,075 262 394 1408
2019-03-25 19:45:17 GMT 45.690231 4.288857 21,950 262 392 1984
2019-03-25 19:45:13 GMT 45.691360 4.299071 21,825 262 392 2112
2019-03-25 19:45:08 GMT 45.692745 4.312408 21,650 262 391 1728
2019-03-25 19:45:01 GMT 45.694557 4.329231 21,450 262 389 1408
2019-03-25 19:44:57 GMT 45.695663 4.339399 21,350 262 388 1408
2019-03-25 19:44:52 GMT 45.697258 4.354500 21,200 262 386 1664
2019-03-25 19:44:47 GMT 45.698517 4.366104 21,075 262 384 2112
2019-03-25 19:44:36 GMT 45.701340 4.392187 20,625 262 385 2752
2019-03-25 19:44:28 GMT 45.703545 4.412796 20,050 262 386 2432
2019-03-25 19:44:24 GMT 45.704590 4.422399 20,125 262 386 2432
2019-03-25 19:44:21 GMT 45.705872 4.434494 19,925 262 386 2368
2019-03-25 19:44:18 GMT 45.706429 4.439987 19,925 262 386 2368
2019-03-25 19:44:14 GMT 45.707108 4.446046 19,725 262 386 2368
2019-03-25 19:44:09 GMT 45.708664 4.461186 19,475 262 386 2496
2019-03-25 19:44:04 GMT 45.709991 4.473780 19,275 262 386 2240
2019-03-25 19:43:59 GMT 45.711365 4.487379 19,075 262 384 1920
2019-03-25 19:43:56 GMT 45.712097 4.494413 19,000 262 383 1792
2019-03-25 19:43:53 GMT 45.712601 4.499437 18,925 262 382 1792
2019-03-25 19:43:48 GMT 45.713974 4.512969 18,725 262 379 2176
2019-03-25 19:43:43 GMT 45.715210 4.525429 17,900 263 373 2048
2019-03-25 19:43:39 GMT 45.716393 4.537285 18,425 262 378 2112
2019-03-25 19:43:35 GMT 45.717419 4.547722 18,300 263 376 1920
2019-03-25 19:43:30 GMT 45.718689 4.560465 18,125 263 375 1920
2019-03-25 19:43:26 GMT 45.719421 4.568370 18,000 263 373 2048
2019-03-25 19:43:22 GMT 45.720291 4.577145 17,875 262 372 2112
2019-03-25 19:43:18 GMT 45.721344 4.587328 17,725 262 371 2176
2019-03-25 19:43:14 GMT 45.722351 4.597510 17,575 262 370 2304
2019-03-25 19:43:11 GMT 45.723038 4.603807 17,500 262 370 2368
2019-03-25 19:43:08 GMT 45.723953 4.612516 17,350 261 370 2432
2019-03-25 19:43:05 GMT 45.724678 4.619270 17,250 261 370 2432
2019-03-25 19:43:02 GMT 45.725426 4.625038 17,125 260 371 2368
2019-03-25 19:42:58 GMT 45.727055 4.635612 16,950 255 373 2368
2019-03-25 19:42:53 GMT 45.730404 4.649689 16,725 246 380 2368
2019-03-25 19:42:50 GMT 45.731800 4.654289 16,650 246 380 2368
2019-03-25 19:42:45 GMT 45.736595 4.667267 16,425 240 384 2368
2019-03-25 19:42:39 GMT 45.740707 4.676223 16,225 235 387 2624
2019-03-25 19:42:35 GMT 45.746979 4.688690 15,975 234 386 2368
2019-03-25 19:42:29 GMT 45.752285 4.698990 15,775 234 386 2432
2019-03-25 19:42:25 GMT 45.756912 4.708044 15,600 234 385 2624
2019-03-25 19:42:18 GMT 45.766529 4.726936 15,250 234 383 2752
2019-03-25 19:42:15 GMT 45.766529 4.726936 15,175 234 383 2752
2019-03-25 19:42:07 GMT 45.778400 4.750282 14,700 235 383 2688
2019-03-25 19:41:57 GMT 45.788780 4.770744 14,250 235 381 3008
2019-03-25 19:41:47 GMT 45.800095 4.793198 13,625 235 380 2624
2019-03-25 19:41:34 GMT 45.809448 4.811874 13,325 235 377 2752
2019-03-25 19:41:24 GMT 45.819626 4.832176 12,750 235 377 3584
2019-03-25 19:41:14 GMT 45.829281 4.851357 12,125 235 381 3328
2019-03-25 19:41:09 GMT 45.834641 4.861986 12,000 235 381 3200
2019-03-25 19:41:04 GMT 45.839432 4.871338 11,575 234 381 2176
2019-03-25 19:41:01 GMT 45.843433 4.879028 11,450 234 379 1856
2019-03-25 19:40:54 GMT 45.850788 4.892967 11,250 233 373 1216
2019-03-25 19:40:48 GMT 45.857758 4.905730 11,150 232 365 896
2019-03-25 19:40:43 GMT 45.862335 4.914037 11,075 232 360 896
2019-03-25 19:40:33 GMT 45.881790 4.950096 10,825 234 330 1536
2019-03-25 19:40:24 GMT 45.881790 4.950096 10,700 234 333 1472
2019-03-25 19:40:21 GMT 45.883656 4.953598 10,650 234 331 1536
2019-03-25 19:40:16 GMT 45.888748 4.963878 10,475 236 323 1920
2019-03-25 19:40:13 GMT 45.890579 4.967763 10,425 238 321 2048
2019-03-25 19:40:10 GMT 45.892311 4.971794 10,325 240 318 2176
2019-03-25 19:40:03 GMT 45.897079 4.987324 10,025 256 306 2624
2019-03-25 19:39:58 GMT 45.898544 4.997172 9,800 264 299 3008
2019-03-25 19:39:50 GMT 45.898785 5.012032 9,350 276 291 3520
2019-03-25 19:39:47 GMT 45.898411 5.016632 9,200 282 287 3712
2019-03-25 19:39:42 GMT 45.896595 5.027275 8,850 289 283 3648
2019-03-25 19:39:37 GMT 45.894081 5.035858 8,575 298 278 3264
2019-03-25 19:39:32 GMT 45.890259 5.044533 8,275 308 272 3072
2019-03-25 19:39:27 GMT 45.886734 5.050562 8,000 316 265 3072
2019-03-25 19:39:21 GMT 45.881653 5.057127 7,725 323 261 3008
2019-03-25 19:39:18 GMT 45.878349 5.060509 7,550 328 257 3008
2019-03-25 19:39:15 GMT 45.875694 5.062843 7,425 333 253 3200
2019-03-25 19:39:11 GMT 45.870899 5.066277 7,175 336 250 3264
2019-03-25 19:39:07 GMT 45.867279 5.068315 7,000 341 247 3456
2019-03-25 19:39:01 GMT 45.860703 5.071083 6,575 348 244 3456
2019-03-25 19:38:57 GMT 45.856049 5.072319 6,350 352 242 3392
2019-03-25 19:38:45 GMT 45.842690 5.074310 5,700 355 239 3136
2019-03-25 19:38:40 GMT 45.837616 5.074947 5,425 356 237 3072
2019-03-25 19:38:35 GMT 45.831711 5.075684 5,150 356 236 2880

Making use of Plane Finder data

You are free to use the raw flight data, aircraft information and images provided in this report for your own purposes provided the data is correctly attributed to Plane Finder. We ask that you please credit Plane Finder and link to planefinder.net in close proximity to the content.

Optionally one of the following logos (no smaller then 150x24px) can be used and must link to planefinder.net

Embedding the Plane Finder map

You are welcome to embed the Plane Finder playback map on your website to offer visitors a more interactive experience. We suggest using the following HTML code:

<iframe src="//planefinder.net/data/report/U24306-OE-IJJ-7700-squawk-2019-03-25/map" width="800" height="600" seamless="seamless"></iframe>

Where our data comes from

Plane Finder has a global network of data feeds and antenna radars that receive data broadcast directly from aircraft. The primary technologies used are ADS-B and MLAT. We also show feeds from the FAA and a FLARM glider feed.

Click here to find out more about the Plane Finder network.

How we collect our data